sensor_id;sensor_type;location;lat;lon;timestamp;P1;durP1;ratioP1;P2;durP2;ratioP2
15358;SDS011;7779;49.596;11.070;2024-03-02T00:00:50;16.83;;;12.73;;
15358;SDS011;7779;49.596;11.070;2024-03-02T00:03:17;15.60;;;11.87;;
15358;SDS011;7779;49.596;11.070;2024-03-02T00:05:44;16.53;;;11.77;;
15358;SDS011;7779;49.596;11.070;2024-03-02T00:08:19;15.90;;;11.30;;
15358;SDS011;7779;49.596;11.070;2024-03-02T00:10:50;16.43;;;12.43;;
15358;SDS011;7779;49.596;11.070;2024-03-02T00:13:16;18.03;;;12.60;;
15358;SDS011;7779;49.596;11.070;2024-03-02T00:18:20;15.40;;;11.83;;
15358;SDS011;7779;49.596;11.070;2024-03-02T00:20:55;19.30;;;12.47;;
15358;SDS011;7779;49.596;11.070;2024-03-02T00:23:22;16.83;;;11.93;;
15358;SDS011;7779;49.596;11.070;2024-03-02T00:25:53;17.23;;;12.07;;
15358;SDS011;7779;49.596;11.070;2024-03-02T00:33:21;18.40;;;12.10;;
15358;SDS011;7779;49.596;11.070;2024-03-02T00:35:48;16.90;;;12.60;;
15358;SDS011;7779;49.596;11.070;2024-03-02T00:38:15;16.47;;;12.43;;
15358;SDS011;7779;49.596;11.070;2024-03-02T00:40:41;15.60;;;11.93;;
15358;SDS011;7779;49.596;11.070;2024-03-02T00:46:02;17.63;;;12.57;;
15358;SDS011;7779;49.596;11.070;2024-03-02T00:48:28;17.60;;;12.23;;
15358;SDS011;7779;49.596;11.070;2024-03-02T00:50:56;17.00;;;12.10;;
15358;SDS011;7779;49.596;11.070;2024-03-02T00:53:23;17.07;;;12.50;;
15358;SDS011;7779;49.596;11.070;2024-03-02T00:55:51;18.43;;;13.33;;
15358;SDS011;7779;49.596;11.070;2024-03-02T00:58:17;17.40;;;12.57;;
15358;SDS011;7779;49.596;11.070;2024-03-02T01:00:43;17.57;;;12.90;;
15358;SDS011;7779;49.596;11.070;2024-03-02T01:03:09;16.87;;;12.17;;
15358;SDS011;7779;49.596;11.070;2024-03-02T01:05:35;18.90;;;12.07;;
15358;SDS011;7779;49.596;11.070;2024-03-02T01:08:02;18.80;;;12.63;;
15358;SDS011;7779;49.596;11.070;2024-03-02T01:10:28;15.90;;;12.47;;
15358;SDS011;7779;49.596;11.070;2024-03-02T01:12:53;16.77;;;12.57;;
15358;SDS011;7779;49.596;11.070;2024-03-02T01:15:19;22.30;;;13.60;;
15358;SDS011;7779;49.596;11.070;2024-03-02T01:17:45;17.20;;;12.13;;
15358;SDS011;7779;49.596;11.070;2024-03-02T01:20:11;16.93;;;12.33;;
15358;SDS011;7779;49.596;11.070;2024-03-02T01:22:37;16.20;;;12.40;;
15358;SDS011;7779;49.596;11.070;2024-03-02T01:25:03;16.50;;;11.67;;
15358;SDS011;7779;49.596;11.070;2024-03-02T01:27:29;16.87;;;11.90;;
15358;SDS011;7779;49.596;11.070;2024-03-02T01:29:55;16.77;;;12.70;;
15358;SDS011;7779;49.596;11.070;2024-03-02T01:32:20;19.47;;;13.60;;
15358;SDS011;7779;49.596;11.070;2024-03-02T01:34:46;16.93;;;12.40;;
15358;SDS011;7779;49.596;11.070;2024-03-02T01:37:12;16.87;;;13.23;;
15358;SDS011;7779;49.596;11.070;2024-03-02T01:39:37;17.80;;;13.30;;
15358;SDS011;7779;49.596;11.070;2024-03-02T01:42:04;19.23;;;12.73;;
15358;SDS011;7779;49.596;11.070;2024-03-02T01:44:30;17.83;;;12.97;;
15358;SDS011;7779;49.596;11.070;2024-03-02T01:46:55;16.87;;;12.47;;
15358;SDS011;7779;49.596;11.070;2024-03-02T01:49:21;16.17;;;12.07;;
15358;SDS011;7779;49.596;11.070;2024-03-02T01:51:47;21.47;;;13.07;;
15358;SDS011;7779;49.596;11.070;2024-03-02T01:54:13;16.73;;;12.60;;
15358;SDS011;7779;49.596;11.070;2024-03-02T01:56:39;17.40;;;12.20;;
15358;SDS011;7779;49.596;11.070;2024-03-02T01:59:05;16.47;;;12.43;;
15358;SDS011;7779;49.596;11.070;2024-03-02T02:01:31;17.43;;;12.17;;
15358;SDS011;7779;49.596;11.070;2024-03-02T02:03:57;17.07;;;12.93;;
15358;SDS011;7779;49.596;11.070;2024-03-02T02:06:23;18.07;;;13.73;;
15358;SDS011;7779;49.596;11.070;2024-03-02T02:08:49;18.60;;;13.63;;
15358;SDS011;7779;49.596;11.070;2024-03-02T02:11:15;18.73;;;13.47;;
15358;SDS011;7779;49.596;11.070;2024-03-02T02:13:41;17.10;;;12.47;;
15358;SDS011;7779;49.596;11.070;2024-03-02T02:16:07;17.90;;;13.20;;
15358;SDS011;7779;49.596;11.070;2024-03-02T02:18:34;16.60;;;12.07;;
15358;SDS011;7779;49.596;11.070;2024-03-02T02:21:01;16.00;;;11.77;;
15358;SDS011;7779;49.596;11.070;2024-03-02T02:23:27;15.70;;;12.00;;
15358;SDS011;7779;49.596;11.070;2024-03-02T02:25:53;17.07;;;12.30;;
15358;SDS011;7779;49.596;11.070;2024-03-02T02:28:19;17.93;;;12.10;;
15358;SDS011;7779;49.596;11.070;2024-03-02T02:30:45;15.03;;;11.00;;
15358;SDS011;7779;49.596;11.070;2024-03-02T02:33:11;16.10;;;12.23;;
15358;SDS011;7779;49.596;11.070;2024-03-02T02:35:37;17.67;;;11.20;;
15358;SDS011;7779;49.596;11.070;2024-03-02T02:38:02;15.13;;;11.30;;
15358;SDS011;7779;49.596;11.070;2024-03-02T02:40:29;14.13;;;10.97;;
15358;SDS011;7779;49.596;11.070;2024-03-02T02:42:56;16.27;;;11.60;;
15358;SDS011;7779;49.596;11.070;2024-03-02T02:45:22;15.50;;;11.47;;
15358;SDS011;7779;49.596;11.070;2024-03-02T02:47:48;15.87;;;11.23;;
15358;SDS011;7779;49.596;11.070;2024-03-02T02:50:14;16.47;;;11.00;;
15358;SDS011;7779;49.596;11.070;2024-03-02T02:52:40;17.60;;;11.83;;
15358;SDS011;7779;49.596;11.070;2024-03-02T02:55:08;15.70;;;12.07;;
15358;SDS011;7779;49.596;11.070;2024-03-02T02:57:36;16.37;;;11.77;;
15358;SDS011;7779;49.596;11.070;2024-03-02T03:00:08;16.67;;;11.60;;
15358;SDS011;7779;49.596;11.070;2024-03-02T03:02:43;14.40;;;10.73;;
15358;SDS011;7779;49.596;11.070;2024-03-02T03:05:12;14.23;;;11.23;;
15358;SDS011;7779;49.596;11.070;2024-03-02T03:07:39;15.17;;;11.57;;
15358;SDS011;7779;49.596;11.070;2024-03-02T03:10:06;16.80;;;12.13;;
15358;SDS011;7779;49.596;11.070;2024-03-02T03:12:33;15.53;;;11.30;;
15358;SDS011;7779;49.596;11.070;2024-03-02T03:14:59;16.87;;;11.97;;
15358;SDS011;7779;49.596;11.070;2024-03-02T03:17:26;17.27;;;11.63;;
15358;SDS011;7779;49.596;11.070;2024-03-02T03:19:52;16.13;;;11.97;;
15358;SDS011;7779;49.596;11.070;2024-03-02T03:22:18;17.27;;;12.40;;
15358;SDS011;7779;49.596;11.070;2024-03-02T03:24:44;18.27;;;13.00;;
15358;SDS011;7779;49.596;11.070;2024-03-02T03:27:10;19.40;;;13.03;;
15358;SDS011;7779;49.596;11.070;2024-03-02T03:29:38;17.80;;;12.37;;
15358;SDS011;7779;49.596;11.070;2024-03-02T03:32:04;18.80;;;13.03;;
15358;SDS011;7779;49.596;11.070;2024-03-02T03:34:35;17.10;;;12.60;;
15358;SDS011;7779;49.596;11.070;2024-03-02T03:37:01;17.37;;;13.20;;
15358;SDS011;7779;49.596;11.070;2024-03-02T03:39:27;19.00;;;12.90;;
15358;SDS011;7779;49.596;11.070;2024-03-02T03:41:53;17.80;;;13.33;;
15358;SDS011;7779;49.596;11.070;2024-03-02T03:44:19;15.70;;;12.67;;
15358;SDS011;7779;49.596;11.070;2024-03-02T03:46:45;18.03;;;12.40;;
15358;SDS011;7779;49.596;11.070;2024-03-02T03:49:11;16.50;;;12.40;;
15358;SDS011;7779;49.596;11.070;2024-03-02T03:51:36;16.77;;;12.47;;
15358;SDS011;7779;49.596;11.070;2024-03-02T03:54:02;17.03;;;12.00;;
15358;SDS011;7779;49.596;11.070;2024-03-02T03:56:28;17.53;;;12.93;;
15358;SDS011;7779;49.596;11.070;2024-03-02T03:58:53;18.50;;;12.67;;
15358;SDS011;7779;49.596;11.070;2024-03-02T04:01:19;17.80;;;12.60;;
15358;SDS011;7779;49.596;11.070;2024-03-02T04:03:47;17.50;;;12.23;;
15358;SDS011;7779;49.596;11.070;2024-03-02T04:06:13;18.03;;;12.97;;
15358;SDS011;7779;49.596;11.070;2024-03-02T04:08:39;16.33;;;12.63;;
15358;SDS011;7779;49.596;11.070;2024-03-02T04:11:06;15.87;;;11.80;;
15358;SDS011;7779;49.596;11.070;2024-03-02T04:13:33;18.07;;;11.87;;
15358;SDS011;7779;49.596;11.070;2024-03-02T04:15:58;17.50;;;12.47;;
15358;SDS011;7779;49.596;11.070;2024-03-02T04:18:24;16.77;;;11.20;;
15358;SDS011;7779;49.596;11.070;2024-03-02T04:20:50;15.83;;;11.63;;
15358;SDS011;7779;49.596;11.070;2024-03-02T04:23:15;17.07;;;11.93;;
15358;SDS011;7779;49.596;11.070;2024-03-02T04:25:41;14.83;;;11.17;;
15358;SDS011;7779;49.596;11.070;2024-03-02T04:28:07;15.30;;;11.63;;
15358;SDS011;7779;49.596;11.070;2024-03-02T04:30:33;16.37;;;12.23;;
15358;SDS011;7779;49.596;11.070;2024-03-02T04:32:58;15.47;;;11.87;;
15358;SDS011;7779;49.596;11.070;2024-03-02T04:35:24;15.83;;;11.13;;
15358;SDS011;7779;49.596;11.070;2024-03-02T04:37:50;14.87;;;11.07;;
15358;SDS011;7779;49.596;11.070;2024-03-02T04:40:16;15.10;;;11.23;;
15358;SDS011;7779;49.596;11.070;2024-03-02T04:42:42;18.03;;;11.53;;
15358;SDS011;7779;49.596;11.070;2024-03-02T04:45:08;12.70;;;10.70;;
15358;SDS011;7779;49.596;11.070;2024-03-02T04:47:34;14.97;;;10.70;;
15358;SDS011;7779;49.596;11.070;2024-03-02T04:49:59;13.97;;;10.60;;
15358;SDS011;7779;49.596;11.070;2024-03-02T04:52:25;15.57;;;11.33;;
15358;SDS011;7779;49.596;11.070;2024-03-02T04:54:51;13.53;;;10.20;;
15358;SDS011;7779;49.596;11.070;2024-03-02T04:57:35;14.10;;;10.10;;
15358;SDS011;7779;49.596;11.070;2024-03-02T05:00:00;14.40;;;10.33;;
15358;SDS011;7779;49.596;11.070;2024-03-02T05:02:26;12.77;;;9.33;;
15358;SDS011;7779;49.596;11.070;2024-03-02T05:04:52;13.20;;;10.50;;
15358;SDS011;7779;49.596;11.070;2024-03-02T05:07:18;13.27;;;9.90;;
15358;SDS011;7779;49.596;11.070;2024-03-02T05:09:43;12.73;;;9.93;;
15358;SDS011;7779;49.596;11.070;2024-03-02T05:12:09;13.33;;;9.47;;
15358;SDS011;7779;49.596;11.070;2024-03-02T05:14:54;12.27;;;9.43;;
15358;SDS011;7779;49.596;11.070;2024-03-02T05:17:21;12.77;;;9.77;;
15358;SDS011;7779;49.596;11.070;2024-03-02T05:19:46;12.57;;;9.13;;
15358;SDS011;7779;49.596;11.070;2024-03-02T05:22:13;12.77;;;9.63;;
15358;SDS011;7779;49.596;11.070;2024-03-02T05:24:38;13.40;;;9.57;;
15358;SDS011;7779;49.596;11.070;2024-03-02T05:27:04;13.07;;;9.37;;
15358;SDS011;7779;49.596;11.070;2024-03-02T05:29:31;12.57;;;9.33;;
15358;SDS011;7779;49.596;11.070;2024-03-02T05:31:57;12.33;;;9.10;;
15358;SDS011;7779;49.596;11.070;2024-03-02T05:34:22;11.07;;;8.63;;
15358;SDS011;7779;49.596;11.070;2024-03-02T05:36:48;11.50;;;8.53;;
15358;SDS011;7779;49.596;11.070;2024-03-02T05:39:14;12.07;;;8.90;;
15358;SDS011;7779;49.596;11.070;2024-03-02T05:41:40;12.53;;;9.40;;
15358;SDS011;7779;49.596;11.070;2024-03-02T05:44:06;11.83;;;9.20;;
15358;SDS011;7779;49.596;11.070;2024-03-02T05:46:32;12.17;;;8.87;;
15358;SDS011;7779;49.596;11.070;2024-03-02T05:48:59;11.67;;;8.73;;
15358;SDS011;7779;49.596;11.070;2024-03-02T05:51:26;12.57;;;9.37;;
15358;SDS011;7779;49.596;11.070;2024-03-02T05:53:51;11.80;;;8.93;;
15358;SDS011;7779;49.596;11.070;2024-03-02T05:56:17;11.27;;;8.73;;
15358;SDS011;7779;49.596;11.070;2024-03-02T05:58:43;12.40;;;9.50;;
15358;SDS011;7779;49.596;11.070;2024-03-02T06:01:22;13.17;;;9.40;;
15358;SDS011;7779;49.596;11.070;2024-03-02T06:03:54;11.40;;;9.27;;
15358;SDS011;7779;49.596;11.070;2024-03-02T06:06:21;11.40;;;9.00;;
15358;SDS011;7779;49.596;11.070;2024-03-02T06:08:48;11.47;;;7.90;;
15358;SDS011;7779;49.596;11.070;2024-03-02T06:11:14;14.50;;;8.90;;
15358;SDS011;7779;49.596;11.070;2024-03-02T06:13:39;12.80;;;9.27;;
15358;SDS011;7779;49.596;11.070;2024-03-02T06:16:05;11.53;;;8.27;;
15358;SDS011;7779;49.596;11.070;2024-03-02T06:18:31;11.73;;;8.37;;
15358;SDS011;7779;49.596;11.070;2024-03-02T06:20:57;11.30;;;8.63;;
15358;SDS011;7779;49.596;11.070;2024-03-02T06:23:23;12.30;;;9.20;;
15358;SDS011;7779;49.596;11.070;2024-03-02T06:25:48;10.57;;;8.30;;
15358;SDS011;7779;49.596;11.070;2024-03-02T06:28:14;12.93;;;9.07;;
15358;SDS011;7779;49.596;11.070;2024-03-02T06:30:40;11.37;;;8.63;;
15358;SDS011;7779;49.596;11.070;2024-03-02T06:33:07;14.73;;;10.60;;
15358;SDS011;7779;49.596;11.070;2024-03-02T06:35:33;16.53;;;13.67;;
15358;SDS011;7779;49.596;11.070;2024-03-02T06:38:00;24.60;;;17.90;;
15358;SDS011;7779;49.596;11.070;2024-03-02T06:40:26;34.40;;;24.27;;
15358;SDS011;7779;49.596;11.070;2024-03-02T06:42:52;25.30;;;17.77;;
15358;SDS011;7779;49.596;11.070;2024-03-02T06:45:18;20.70;;;14.07;;
15358;SDS011;7779;49.596;11.070;2024-03-02T06:47:43;18.77;;;13.00;;
15358;SDS011;7779;49.596;11.070;2024-03-02T06:50:09;16.53;;;11.70;;
15358;SDS011;7779;49.596;11.070;2024-03-02T06:52:35;14.33;;;10.57;;
15358;SDS011;7779;49.596;11.070;2024-03-02T06:55:01;14.73;;;11.10;;
15358;SDS011;7779;49.596;11.070;2024-03-02T06:57:29;13.63;;;10.50;;
15358;SDS011;7779;49.596;11.070;2024-03-02T06:59:55;12.77;;;9.80;;
15358;SDS011;7779;49.596;11.070;2024-03-02T07:02:23;13.17;;;9.67;;
15358;SDS011;7779;49.596;11.070;2024-03-02T07:04:52;12.00;;;9.33;;
15358;SDS011;7779;49.596;11.070;2024-03-02T07:07:18;13.33;;;9.60;;
15358;SDS011;7779;49.596;11.070;2024-03-02T07:09:44;11.20;;;9.13;;
15358;SDS011;7779;49.596;11.070;2024-03-02T07:12:10;12.27;;;9.03;;
15358;SDS011;7779;49.596;11.070;2024-03-02T07:14:36;12.43;;;8.87;;
15358;SDS011;7779;49.596;11.070;2024-03-02T07:17:34;11.90;;;9.07;;
15358;SDS011;7779;49.596;11.070;2024-03-02T07:20:02;13.30;;;9.00;;
15358;SDS011;7779;49.596;11.070;2024-03-02T07:22:31;11.50;;;8.77;;
15358;SDS011;7779;49.596;11.070;2024-03-02T07:24:58;11.20;;;9.00;;
15358;SDS011;7779;49.596;11.070;2024-03-02T07:27:23;11.40;;;8.90;;
15358;SDS011;7779;49.596;11.070;2024-03-02T07:29:49;12.00;;;10.10;;
15358;SDS011;7779;49.596;11.070;2024-03-02T07:32:15;11.30;;;8.73;;
15358;SDS011;7779;49.596;11.070;2024-03-02T07:34:41;13.00;;;10.10;;
15358;SDS011;7779;49.596;11.070;2024-03-02T07:37:06;13.20;;;9.63;;
15358;SDS011;7779;49.596;11.070;2024-03-02T07:39:32;11.03;;;9.40;;
15358;SDS011;7779;49.596;11.070;2024-03-02T07:41:59;13.10;;;9.47;;
15358;SDS011;7779;49.596;11.070;2024-03-02T07:44:25;12.40;;;9.60;;
15358;SDS011;7779;49.596;11.070;2024-03-02T07:46:51;12.40;;;10.03;;
15358;SDS011;7779;49.596;11.070;2024-03-02T07:49:17;12.37;;;9.70;;
15358;SDS011;7779;49.596;11.070;2024-03-02T07:51:43;12.57;;;9.57;;
15358;SDS011;7779;49.596;11.070;2024-03-02T07:54:09;11.37;;;8.97;;
15358;SDS011;7779;49.596;11.070;2024-03-02T07:56:35;12.73;;;9.37;;
15358;SDS011;7779;49.596;11.070;2024-03-02T07:59:02;11.87;;;9.30;;
15358;SDS011;7779;49.596;11.070;2024-03-02T08:01:28;11.47;;;9.73;;
15358;SDS011;7779;49.596;11.070;2024-03-02T08:04:00;11.67;;;9.73;;
15358;SDS011;7779;49.596;11.070;2024-03-02T08:06:29;11.90;;;9.47;;
15358;SDS011;7779;49.596;11.070;2024-03-02T08:08:55;12.47;;;9.70;;
15358;SDS011;7779;49.596;11.070;2024-03-02T08:11:23;11.33;;;9.17;;
15358;SDS011;7779;49.596;11.070;2024-03-02T08:13:49;11.97;;;9.30;;
15358;SDS011;7779;49.596;11.070;2024-03-02T08:16:15;11.57;;;8.77;;
15358;SDS011;7779;49.596;11.070;2024-03-02T08:18:44;11.27;;;8.80;;
15358;SDS011;7779;49.596;11.070;2024-03-02T08:21:12;9.93;;;8.33;;
15358;SDS011;7779;49.596;11.070;2024-03-02T08:23:38;9.63;;;7.93;;
15358;SDS011;7779;49.596;11.070;2024-03-02T08:26:07;11.50;;;8.77;;
15358;SDS011;7779;49.596;11.070;2024-03-02T08:28:33;11.53;;;8.33;;
15358;SDS011;7779;49.596;11.070;2024-03-02T08:30:59;10.63;;;8.23;;
15358;SDS011;7779;49.596;11.070;2024-03-02T08:33:25;11.27;;;8.20;;
15358;SDS011;7779;49.596;11.070;2024-03-02T08:35:51;9.60;;;7.80;;
15358;SDS011;7779;49.596;11.070;2024-03-02T08:38:17;9.87;;;7.67;;
15358;SDS011;7779;49.596;11.070;2024-03-02T08:40:43;11.43;;;8.63;;
15358;SDS011;7779;49.596;11.070;2024-03-02T08:43:09;9.43;;;7.50;;
15358;SDS011;7779;49.596;11.070;2024-03-02T08:45:35;11.33;;;8.77;;
15358;SDS011;7779;49.596;11.070;2024-03-02T08:48:01;10.33;;;8.20;;
15358;SDS011;7779;49.596;11.070;2024-03-02T08:50:27;9.23;;;7.80;;
15358;SDS011;7779;49.596;11.070;2024-03-02T08:52:53;10.07;;;8.00;;
15358;SDS011;7779;49.596;11.070;2024-03-02T08:55:19;10.43;;;8.50;;
15358;SDS011;7779;49.596;11.070;2024-03-02T08:57:44;10.03;;;7.73;;
15358;SDS011;7779;49.596;11.070;2024-03-02T09:00:10;8.97;;;7.50;;
15358;SDS011;7779;49.596;11.070;2024-03-02T09:02:37;9.67;;;7.80;;
15358;SDS011;7779;49.596;11.070;2024-03-02T09:05:03;8.70;;;7.63;;
15358;SDS011;7779;49.596;11.070;2024-03-02T09:07:30;10.73;;;8.97;;
15358;SDS011;7779;49.596;11.070;2024-03-02T09:09:56;10.03;;;7.97;;
15358;SDS011;7779;49.596;11.070;2024-03-02T09:12:21;7.87;;;6.63;;
15358;SDS011;7779;49.596;11.070;2024-03-02T09:14:47;7.33;;;6.13;;
15358;SDS011;7779;49.596;11.070;2024-03-02T09:17:14;7.87;;;6.50;;
15358;SDS011;7779;49.596;11.070;2024-03-02T09:19:39;28.00;;;25.43;;
15358;SDS011;7779;49.596;11.070;2024-03-02T09:22:05;10.17;;;9.13;;
15358;SDS011;7779;49.596;11.070;2024-03-02T09:24:31;9.20;;;8.30;;
15358;SDS011;7779;49.596;11.070;2024-03-02T09:27:00;8.50;;;7.70;;
15358;SDS011;7779;49.596;11.070;2024-03-02T09:29:26;9.90;;;7.87;;
15358;SDS011;7779;49.596;11.070;2024-03-02T09:31:52;7.20;;;6.23;;
15358;SDS011;7779;49.596;11.070;2024-03-02T09:34:17;6.93;;;6.20;;
15358;SDS011;7779;49.596;11.070;2024-03-02T09:36:43;6.83;;;5.73;;
15358;SDS011;7779;49.596;11.070;2024-03-02T09:39:09;5.93;;;5.33;;
15358;SDS011;7779;49.596;11.070;2024-03-02T09:41:36;7.20;;;6.17;;
15358;SDS011;7779;49.596;11.070;2024-03-02T09:44:03;7.40;;;5.37;;
15358;SDS011;7779;49.596;11.070;2024-03-02T09:46:30;5.80;;;5.20;;
15358;SDS011;7779;49.596;11.070;2024-03-02T09:48:56;5.63;;;4.80;;
15358;SDS011;7779;49.596;11.070;2024-03-02T09:51:22;5.23;;;4.20;;
15358;SDS011;7779;49.596;11.070;2024-03-02T09:53:48;5.33;;;4.47;;
15358;SDS011;7779;49.596;11.070;2024-03-02T09:56:15;4.47;;;4.07;;
15358;SDS011;7779;49.596;11.070;2024-03-02T09:58:41;5.17;;;4.00;;
15358;SDS011;7779;49.596;11.070;2024-03-02T10:01:07;5.63;;;4.10;;
15358;SDS011;7779;49.596;11.070;2024-03-02T10:03:35;4.83;;;4.10;;
15358;SDS011;7779;49.596;11.070;2024-03-02T10:08:48;4.70;;;4.17;;
15358;SDS011;7779;49.596;11.070;2024-03-02T10:14:04;4.57;;;4.03;;
15358;SDS011;7779;49.596;11.070;2024-03-02T10:16:39;5.80;;;4.67;;
15358;SDS011;7779;49.596;11.070;2024-03-02T10:19:22;5.33;;;4.67;;
15358;SDS011;7779;49.596;11.070;2024-03-02T10:21:54;5.30;;;4.03;;
15358;SDS011;7779;49.596;11.070;2024-03-02T10:24:22;5.10;;;4.60;;
15358;SDS011;7779;49.596;11.070;2024-03-02T10:26:48;5.27;;;4.37;;
15358;SDS011;7779;49.596;11.070;2024-03-02T10:29:15;6.10;;;4.33;;
15358;SDS011;7779;49.596;11.070;2024-03-02T10:31:41;5.17;;;4.67;;
15358;SDS011;7779;49.596;11.070;2024-03-02T10:34:13;5.30;;;4.20;;
15358;SDS011;7779;49.596;11.070;2024-03-02T10:36:41;4.77;;;4.07;;
15358;SDS011;7779;49.596;11.070;2024-03-02T10:39:08;4.87;;;4.33;;
15358;SDS011;7779;49.596;11.070;2024-03-02T10:41:35;4.23;;;3.70;;
15358;SDS011;7779;49.596;11.070;2024-03-02T10:44:06;5.17;;;4.43;;
15358;SDS011;7779;49.596;11.070;2024-03-02T10:46:35;5.73;;;4.57;;
15358;SDS011;7779;49.596;11.070;2024-03-02T10:49:02;5.37;;;4.87;;
15358;SDS011;7779;49.596;11.070;2024-03-02T10:51:30;5.10;;;3.83;;
15358;SDS011;7779;49.596;11.070;2024-03-02T10:53:58;4.27;;;3.70;;
15358;SDS011;7779;49.596;11.070;2024-03-02T10:56:29;4.10;;;3.70;;
15358;SDS011;7779;49.596;11.070;2024-03-02T10:59:01;4.33;;;3.93;;
15358;SDS011;7779;49.596;11.070;2024-03-02T11:02:04;4.93;;;3.83;;
15358;SDS011;7779;49.596;11.070;2024-03-02T11:04:32;4.00;;;3.43;;
15358;SDS011;7779;49.596;11.070;2024-03-02T11:07:01;3.67;;;3.30;;
15358;SDS011;7779;49.596;11.070;2024-03-02T11:09:33;4.60;;;4.10;;
15358;SDS011;7779;49.596;11.070;2024-03-02T11:14:44;3.97;;;3.57;;
15358;SDS011;7779;49.596;11.070;2024-03-02T11:17:10;4.67;;;4.10;;
15358;SDS011;7779;49.596;11.070;2024-03-02T11:19:40;6.07;;;4.73;;
15358;SDS011;7779;49.596;11.070;2024-03-02T11:22:07;5.43;;;4.47;;
15358;SDS011;7779;49.596;11.070;2024-03-02T11:24:34;5.13;;;4.63;;
15358;SDS011;7779;49.596;11.070;2024-03-02T11:27:03;5.63;;;5.03;;
15358;SDS011;7779;49.596;11.070;2024-03-02T11:32:04;4.90;;;4.40;;
15358;SDS011;7779;49.596;11.070;2024-03-02T11:34:48;5.43;;;4.43;;
15358;SDS011;7779;49.596;11.070;2024-03-02T11:37:19;4.97;;;4.47;;
15358;SDS011;7779;49.596;11.070;2024-03-02T11:39:45;4.60;;;4.10;;
15358;SDS011;7779;49.596;11.070;2024-03-02T11:42:14;5.00;;;4.50;;
15358;SDS011;7779;49.596;11.070;2024-03-02T11:44:42;4.80;;;4.40;;
15358;SDS011;7779;49.596;11.070;2024-03-02T11:47:16;5.57;;;4.70;;
15358;SDS011;7779;49.596;11.070;2024-03-02T11:49:47;4.90;;;4.47;;
15358;SDS011;7779;49.596;11.070;2024-03-02T11:52:16;5.23;;;4.73;;
15358;SDS011;7779;49.596;11.070;2024-03-02T11:54:46;4.97;;;4.43;;
15358;SDS011;7779;49.596;11.070;2024-03-02T11:57:17;4.63;;;4.23;;
15358;SDS011;7779;49.596;11.070;2024-03-02T11:59:49;4.60;;;4.13;;
15358;SDS011;7779;49.596;11.070;2024-03-02T12:02:16;5.03;;;4.43;;
15358;SDS011;7779;49.596;11.070;2024-03-02T12:04:44;4.60;;;4.17;;
15358;SDS011;7779;49.596;11.070;2024-03-02T12:07:11;5.43;;;4.80;;
15358;SDS011;7779;49.596;11.070;2024-03-02T12:09:38;5.57;;;5.07;;
15358;SDS011;7779;49.596;11.070;2024-03-02T12:12:07;5.13;;;4.63;;
15358;SDS011;7779;49.596;11.070;2024-03-02T12:14:35;5.23;;;4.73;;
15358;SDS011;7779;49.596;11.070;2024-03-02T12:17:03;8.67;;;5.10;;
15358;SDS011;7779;49.596;11.070;2024-03-02T12:19:30;5.60;;;5.00;;
15358;SDS011;7779;49.596;11.070;2024-03-02T12:21:58;6.17;;;5.30;;
15358;SDS011;7779;49.596;11.070;2024-03-02T12:24:28;6.53;;;5.37;;
15358;SDS011;7779;49.596;11.070;2024-03-02T12:26:54;7.07;;;5.60;;
15358;SDS011;7779;49.596;11.070;2024-03-02T12:29:22;6.83;;;5.33;;
15358;SDS011;7779;49.596;11.070;2024-03-02T12:31:49;5.70;;;5.10;;
15358;SDS011;7779;49.596;11.070;2024-03-02T12:34:17;7.37;;;5.90;;
15358;SDS011;7779;49.596;11.070;2024-03-02T12:36:44;8.27;;;6.03;;
15358;SDS011;7779;49.596;11.070;2024-03-02T12:39:17;7.50;;;5.83;;
15358;SDS011;7779;49.596;11.070;2024-03-02T12:41:47;7.30;;;6.40;;
15358;SDS011;7779;49.596;11.070;2024-03-02T12:44:15;7.80;;;6.20;;
15358;SDS011;7779;49.596;11.070;2024-03-02T12:46:42;6.60;;;5.90;;
15358;SDS011;7779;49.596;11.070;2024-03-02T12:49:09;7.57;;;6.03;;
15358;SDS011;7779;49.596;11.070;2024-03-02T12:51:40;7.30;;;5.70;;
15358;SDS011;7779;49.596;11.070;2024-03-02T12:54:07;6.83;;;5.90;;
15358;SDS011;7779;49.596;11.070;2024-03-02T12:56:37;6.57;;;5.87;;
15358;SDS011;7779;49.596;11.070;2024-03-02T12:59:06;5.93;;;5.33;;
15358;SDS011;7779;49.596;11.070;2024-03-02T13:01:32;7.30;;;6.27;;
15358;SDS011;7779;49.596;11.070;2024-03-02T13:03:58;9.53;;;6.90;;
15358;SDS011;7779;49.596;11.070;2024-03-02T13:06:24;8.37;;;6.30;;
15358;SDS011;7779;49.596;11.070;2024-03-02T13:08:54;6.83;;;5.97;;
15358;SDS011;7779;49.596;11.070;2024-03-02T13:11:21;7.40;;;6.50;;
15358;SDS011;7779;49.596;11.070;2024-03-02T13:13:48;7.27;;;6.47;;
15358;SDS011;7779;49.596;11.070;2024-03-02T13:16:15;7.93;;;6.60;;
15358;SDS011;7779;49.596;11.070;2024-03-02T13:18:42;8.53;;;6.60;;
15358;SDS011;7779;49.596;11.070;2024-03-02T13:21:10;7.43;;;6.53;;
15358;SDS011;7779;49.596;11.070;2024-03-02T13:23:35;7.60;;;6.70;;
15358;SDS011;7779;49.596;11.070;2024-03-02T13:26:01;9.97;;;8.07;;
15358;SDS011;7779;49.596;11.070;2024-03-02T13:28:27;8.13;;;7.00;;
15358;SDS011;7779;49.596;11.070;2024-03-02T13:30:53;8.33;;;6.50;;
15358;SDS011;7779;49.596;11.070;2024-03-02T13:33:19;8.80;;;7.63;;
15358;SDS011;7779;49.596;11.070;2024-03-02T13:35:48;9.97;;;7.67;;
15358;SDS011;7779;49.596;11.070;2024-03-02T13:38:16;9.80;;;7.60;;
15358;SDS011;7779;49.596;11.070;2024-03-02T13:40:44;8.70;;;7.00;;
15358;SDS011;7779;49.596;11.070;2024-03-02T13:43:10;7.77;;;6.97;;
15358;SDS011;7779;49.596;11.070;2024-03-02T13:45:37;7.77;;;6.90;;
15358;SDS011;7779;49.596;11.070;2024-03-02T13:48:04;7.77;;;6.53;;
15358;SDS011;7779;49.596;11.070;2024-03-02T13:50:30;7.73;;;6.67;;
15358;SDS011;7779;49.596;11.070;2024-03-02T13:52:56;8.00;;;6.43;;
15358;SDS011;7779;49.596;11.070;2024-03-02T13:55:22;8.93;;;6.60;;
15358;SDS011;7779;49.596;11.070;2024-03-02T13:57:48;8.97;;;6.13;;
15358;SDS011;7779;49.596;11.070;2024-03-02T14:00:17;7.47;;;6.47;;
15358;SDS011;7779;49.596;11.070;2024-03-02T14:02:45;8.80;;;6.30;;
15358;SDS011;7779;49.596;11.070;2024-03-02T14:05:11;7.53;;;5.77;;
15358;SDS011;7779;49.596;11.070;2024-03-02T14:07:38;7.40;;;5.83;;
15358;SDS011;7779;49.596;11.070;2024-03-02T14:10:05;7.17;;;6.30;;
15358;SDS011;7779;49.596;11.070;2024-03-02T14:12:31;7.10;;;6.37;;
15358;SDS011;7779;49.596;11.070;2024-03-02T14:14:57;6.90;;;5.67;;
15358;SDS011;7779;49.596;11.070;2024-03-02T14:17:26;7.93;;;5.83;;
15358;SDS011;7779;49.596;11.070;2024-03-02T14:19:51;7.53;;;6.17;;
15358;SDS011;7779;49.596;11.070;2024-03-02T14:22:18;6.83;;;5.83;;
15358;SDS011;7779;49.596;11.070;2024-03-02T14:24:47;8.20;;;5.23;;
15358;SDS011;7779;49.596;11.070;2024-03-02T14:27:14;7.37;;;5.63;;
15358;SDS011;7779;49.596;11.070;2024-03-02T14:29:41;8.10;;;5.93;;
15358;SDS011;7779;49.596;11.070;2024-03-02T14:32:08;8.00;;;6.07;;
15358;SDS011;7779;49.596;11.070;2024-03-02T14:34:33;8.90;;;6.50;;
15358;SDS011;7779;49.596;11.070;2024-03-02T14:36:59;7.53;;;6.13;;
15358;SDS011;7779;49.596;11.070;2024-03-02T14:39:26;9.33;;;7.30;;
15358;SDS011;7779;49.596;11.070;2024-03-02T14:41:52;10.27;;;7.30;;
15358;SDS011;7779;49.596;11.070;2024-03-02T14:44:18;9.77;;;7.83;;
15358;SDS011;7779;49.596;11.070;2024-03-02T14:46:46;9.67;;;7.97;;
15358;SDS011;7779;49.596;11.070;2024-03-02T14:49:13;11.43;;;8.03;;
15358;SDS011;7779;49.596;11.070;2024-03-02T14:51:39;11.67;;;8.33;;
15358;SDS011;7779;49.596;11.070;2024-03-02T14:54:05;16.00;;;8.23;;
15358;SDS011;7779;49.596;11.070;2024-03-02T14:56:30;11.30;;;8.77;;